Latest Coastal Weather Observations for Hillarys Point Boat Harbour

IDW60701

Issued at 6:02 am WST Tuesday 26 July 2016 (issued every 10 minutes, with the page automatically refreshed every 10 minutes)

About coastal observations | Map of coastal stations | Coastal observations for WA | Marine services | Other Formats
Station Details ID: 009265 Name: HILLARYS BOAT HARBOUR NTC AWS Lat: -31.83 Lon: 115.74 Height: 0.0 m
Data from the previous 72 hours. | See also: Recent months for locations in Western Australia
Date/Time
WST
Temp
°C
Wind Pressure Rain since
9am
mm
Weather Cloud Vis
km
Sea
Height
m
Swell
Dir  Spd
kts
Gust
kts
hPa Trend Height
m
Period
s
Dir
26/06:00am 8.1 NE 2 4 1027.5 - - - - - - - - -
26/05:30am 7.6 ENE 5 7 1027.3 - - - - - - - - -
26/05:00am 8.2 NE 4 6 1027.0 - - - - - - - - -
26/04:30am 7.7 ENE 2 4 1027.0 - - - - - - - - -
26/04:00am 8.7 NE 3 5 1027.0 - - - - - - - - -
26/03:30am 8.5 NE 4 7 1027.1 - - - - - - - - -
26/03:00am 8.9 NE 3 7 1027.3 - - - - - - - - -
26/02:30am 8.9 NE 4 6 1027.1 - - - - - - - - -
26/02:00am 9.0 ENE 4 7 1027.2 - - - - - - - - -
26/01:30am 9.2 NE 3 6 1027.5 - - - - - - - - -
26/01:00am 9.4 NE 3 6 1027.4 - - - - - - - - -
26/12:30am 9.8 NE 4 7 1027.4 - - - - - - - - -
26/12:00am 10.1 NE 3 5 1027.7 - - - - - - - - -
 
Date/Time
WST
Temp
°C
Wind Pressure Rain since
9am
mm
Weather Cloud Vis
km
Sea
Height
m
Swell
Dir  Spd
kts
Gust
kts
hPa Trend Height
m
Period
s
Dir
25/11:30pm 10.6 ENE 3 5 1028.2 - - - - - - - - -
25/11:00pm 11.0 NE 3 5 1028.1 - - - - - - - - -
25/10:30pm 10.9 NE 3 5 1028.1 - - - - - - - - -
25/10:00pm 11.2 ENE 4 5 1028.1 - - - - - - - - -
25/09:30pm 11.5 ENE 3 6 1027.7 - - - - - - - - -
25/09:00pm 12.6 E 1 2 1027.8 - - - - - - - - -
25/08:30pm 12.4 ENE 1 2 1027.6 - - - - - - - - -
25/08:00pm 13.1 E 1 2 1027.7 - - - - - - - - -
25/07:30pm 13.7 SSE 1 3 1027.5 - - - - - - - - -
25/07:00pm 14.3 SSE 3 6 1027.2 - - - - - - - - -
25/06:30pm 14.7 SSW 2 5 1027.1 - - - - - - - - -
25/06:00pm 14.8 SSW 3 7 1026.7 - - - - - - - - -
25/05:30pm 15.0 SSW 4 9 1026.6 - - - - - - - - -
25/05:00pm 15.2 SSW 4 10 1026.3 - - - - - - - - -
25/04:30pm 15.3 SSW 4 7 1026.2 - - - - - - - - -
25/04:00pm 15.3 SSW 5 10 1026.1 - - - - - - - - -
25/03:30pm 15.4 SSW 5 10 1026.1 - - - - - - - - -
25/03:00pm 15.4 SSW 4 9 1026.0 - - - - - - - - -
25/02:30pm 15.5 SSW 5 10 1026.1 - - - - - - - - -
25/02:00pm 15.7 SSW 3 7 1026.3 - - - - - - - - -
25/01:30pm 16.1 S 2 7 1026.3 - - - - - - - - -
25/01:00pm 15.7 S 3 8 1026.7 - - - - - - - - -
25/12:30pm 15.5 S 3 8 1027.0 - - - - - - - - -
25/12:00pm 15.1 S 3 9 1027.6 - - - - - - - - -
25/11:30am 15.1 S 2 6 1027.9 - - - - - - - - -
25/11:00am 14.4 SE 3 6 1028.1 - - - - - - - - -
25/10:30am 14.1 E 2 5 1028.3 - - - - - - - - -
25/10:00am 13.7 ENE 5 9 1028.2 - - - - - - - - -
25/09:30am 12.7 ENE 5 9 1028.1 - - - - - - - - -
25/09:00am 12.1 ENE 4 8 1028.1 - - - - - - - - -
25/08:30am 11.3 ENE 5 8 1028.0 - - - - - - - - -
25/08:00am 10.6 ENE 6 11 1027.6 - - - - - - - - -
25/07:30am 9.9 ENE 6 10 1027.3 - - - - - - - - -
25/07:00am 10.0 ENE 7 10 1026.9 - - - - - - - - -
25/06:30am 10.5 ENE 5 9 1026.7 - - - - - - - - -
25/06:00am 10.3 ENE 3 4 1026.7 - - - - - - - - -
25/05:30am 10.3 ESE 2 3 1026.7 - - - - - - - - -
25/05:00am 10.2 E 1 3 1026.5 - - - - - - - - -
25/04:30am 10.2 SE 1 3 1026.5 - - - - - - - - -
25/04:00am 10.3 ESE 2 5 1026.5 - - - - - - - - -
25/03:30am 10.3 ENE 4 7 1026.4 - - - - - - - - -
25/03:00am 10.5 ENE 4 6 1026.5 - - - - - - - - -
25/02:30am 10.4 NE 3 5 1026.4 - - - - - - - - -
25/02:00am 10.7 ENE 3 5 1026.6 - - - - - - - - -
25/01:30am 10.9 ENE 4 7 1026.8 - - - - - - - - -
25/01:00am 10.9 ENE 5 8 1026.8 - - - - - - - - -
25/12:30am 10.8 ENE 5 7 1027.1 - - - - - - - - -
25/12:00am 10.7 ENE 6 8 1027.2 - - - - - - - - -
 
Date/Time
WST
Temp
°C
Wind Pressure Rain since
9am
mm
Weather Cloud Vis
km
Sea
Height
m
Swell
Dir  Spd
kts
Gust
kts
hPa Trend Height
m
Period
s
Dir
24/11:30pm 10.5 ENE 5 9 1027.3 - - - - - - - - -
24/11:00pm 10.4 NE 3 5 1027.6 - - - - - - - - -
24/10:30pm 10.4 NE 2 4 1027.6 - - - - - - - - -
24/10:00pm 11.1 ENE 1 2 1027.7 - - - - - - - - -
24/09:30pm 11.8 ENE 2 3 1027.6 - - - - - - - - -
24/09:00pm 12.3 E 1 3 1027.5 - - - - - - - - -
24/08:30pm 12.9 ESE 2 5 1027.3 - - - - - - - - -
24/08:00pm 12.9 SE 2 7 1027.1 - - - - - - - - -
24/07:30pm 13.0 SSE 3 7 1027.0 - - - - - - - - -
24/07:00pm 13.3 S 4 9 1026.7 - - - - - - - - -
24/06:30pm 13.1 SSE 5 9 1026.5 - - - - - - - - -
24/06:00pm 13.0 SSE 5 9 1026.3 - - - - - - - - -
24/05:30pm 13.3 S 4 9 1026.1 - - - - - - - - -
24/05:00pm 13.6 S 4 11 1026.0 - - - - - - - - -
24/04:30pm 14.0 S 4 8 1025.8 - - - - - - - - -
24/04:00pm 14.3 S 4 8 1025.7 - - - - - - - - -
24/03:30pm 14.4 S 3 8 1025.6 - - - - - - - - -
24/03:00pm 14.2 S 3 9 1025.6 - - - - - - - - -
24/02:30pm 14.4 SSW 4 8 1025.8 - - - - - - - - -
24/02:00pm 13.9 SSW 4 7 1026.0 - - - - - - - - -
24/01:30pm 13.3 SW 4 7 1026.2 - - - - - - - - -
24/01:00pm 14.0 SSW 4 9 1026.7 - - - - - - - - -
24/12:30pm 13.3 S 3 7 1027.3 - - - - - - - - -
24/12:00pm 13.2 SSE 4 7 1027.8 - - - - - - - - -
24/11:30am 13.1 SE 3 8 1028.2 - - - - - - - - -
24/11:00am 12.6 ENE 4 8 1028.5 - - - - - - - - -
24/10:30am 11.9 ENE 4 6 1028.7 - - - - - - - - -
24/10:00am 11.2 ENE 5 7 1028.8 - - - - - - - - -
24/09:30am 9.9 ENE 4 7 1028.6 - - - - - - - - -
24/09:00am 8.9 ENE 5 8 1028.5 - - - - - - - - -
24/08:30am 7.7 ENE 7 9 1028.0 - - - - - - - - -
24/08:00am 6.3 ENE 6 9 1027.8 - - - - - - - - -
24/07:30am 5.9 ENE 6 10 1027.6 - - - - - - - - -
24/07:00am 6.1 ENE 5 8 1027.3 - - - - - - - - -
24/06:30am 6.0 ENE 5 7 1026.8 - - - - - - - - -
24/06:00am 6.2 ENE 4 6 1026.5 - - - - - - - - -
24/05:30am 6.7 ENE 3 5 1026.5 - - - - - - - - -
24/05:00am 7.3 ENE 3 6 1026.4 - - - - - - - - -
24/04:30am 8.0 ENE 3 5 1026.3 - - - - - - - - -
24/04:00am 8.1 E 2 4 1026.1 - - - - - - - - -
24/03:30am 8.1 E 2 4 1026.2 - - - - - - - - -
24/03:00am 8.2 E 2 4 1026.5 - - - - - - - - -
24/02:30am 8.2 E 2 4 1026.5 - - - - - - - - -
24/02:00am 7.8 ENE 3 5 1026.4 - - - - - - - - -
24/01:30am 8.3 E 2 5 1026.3 - - - - - - - - -
24/01:00am 8.4 E 1 3 1026.2 - - - - - - - - -
24/12:30am 9.0 SE 1 3 1026.1 - - - - - - - - -
24/12:00am 9.3 E 2 5 1026.1 - - - - - - - - -
 
Date/Time
WST
Temp
°C
Wind Pressure Rain since
9am
mm
Weather Cloud Vis
km
Sea
Height
m
Swell
Dir  Spd
kts
Gust
kts
hPa Trend Height
m
Period
s
Dir
23/11:30pm 10.0 ESE 2 6 1026.2 - - - - - - - - -
23/11:00pm 10.4 SE 3 9 1026.0 - - - - - - - - -
23/10:30pm 11.2 SSE 5 10 1025.9 - - - - - - - - -
23/10:00pm 11.3 SE 4 9 1025.7 - - - - - - - - -
23/09:30pm 11.8 SSE 6 10 1025.4 - - - - - - - - -
23/09:00pm 12.2 SSE 5 11 1025.1 - - - - - - - - -
23/08:30pm 12.9 SSE 6 12 1024.8 - - - - - - - - -
23/08:00pm 13.2 SSE 6 13 1024.6 - - - - - - - - -
23/07:30pm 13.4 SSE 5 12 1024.3 - - - - - - - - -
23/07:00pm 13.8 SSE 6 11 1024.1 - - - - - - - - -
23/06:30pm 13.9 SSE 5 12 1023.6 - - - - - - - - -
23/06:00pm 14.1 S 5 12 1023.4 - - - - - - - - -
23/05:30pm 14.2 S 5 12 1023.0 - - - - - - - - -
23/05:00pm 14.4 S 4 13 1022.6 - - - - - - - - -
23/04:30pm 14.5 SSW 5 14 1022.3 - - - - - - - - -
23/04:00pm 14.5 S 5 13 1022.0 - - - - - - - - -
23/03:30pm 14.1 S 5 11 1022.1 - - - - - - - - -
23/03:00pm 12.8 SSW 6 15 1022.1 - - - - - - - - -
23/02:39pm 13.3 SSW 15 26 1021.6 - - - - - - - - -
23/02:30pm 14.0 SW 10 18 1021.8 - - - - - - - - -
23/02:00pm 15.8 WSW 13 17 1021.5 - - - - - - - - -
23/01:30pm 15.7 WSW 10 14 1021.6 - - - - - - - - -
23/01:00pm 15.7 WSW 8 13 1022.0 - - - - - - - - -
23/12:30pm 15.3 WSW 10 13 1022.5 - - - - - - - - -
23/12:00pm 14.8 W 8 12 1023.0 - - - - - - - - -
23/11:30am 14.6 WSW 10 14 1023.2 - - - - - - - - -
23/11:00am 14.7 SW 12 17 1023.5 - - - - - - - - -
23/10:30am 14.1 W 4 6 1023.4 - - - - - - - - -
23/10:00am 14.5 WSW 15 19 1023.5 - - - - - - - - -
23/09:30am 14.8 SW 12 17 1023.3 - - - - - - - - -
23/09:00am 12.1 ENE 2 4 1023.1 - - - - - - - - -
23/08:30am 11.5 NNE 3 6 1023.0 - - - - - - - - -
23/08:00am 10.7 NNE 5 9 1022.9 - - - - - - - - -
23/07:30am 10.9 N 5 9 1023.0 - - - - - - - - -
23/07:00am 10.9 NNE 5 10 1022.6 - - - - - - - - -
23/06:30am 11.0 NNE 3 5 1022.6 - - - - - - - - -

Other Formats:

Comma delimited format used in spreadsheet applications
http://www.bom.gov.au/fwo/IDW60701/IDW60701.95605.axf

JavaScript Object Notation format (JSON) in row-major order
http://www.bom.gov.au/fwo/IDW60701/IDW60701.95605.json